sensor_id;sensor_type;location;lat;lon;timestamp;pressure;altitude;pressure_sealevel;temperature;humidity
48216;BME280;34005;48.844;10.098;2023-09-19T00:00:56;96327.47;;;18.80;66.54
48216;BME280;34005;48.844;10.098;2023-09-19T00:03:25;96331.75;;;18.81;66.47
48216;BME280;34005;48.844;10.098;2023-09-19T00:05:55;96327.00;;;18.83;66.85
48216;BME280;34005;48.844;10.098;2023-09-19T00:08:22;96331.00;;;18.86;66.01
48216;BME280;34005;48.844;10.098;2023-09-19T00:10:50;96343.72;;;18.89;66.06
48216;BME280;34005;48.844;10.098;2023-09-19T00:13:20;96343.72;;;18.89;65.73
48216;BME280;34005;48.844;10.098;2023-09-19T00:15:48;96347.19;;;18.89;65.51
48216;BME280;34005;48.844;10.098;2023-09-19T00:18:18;96346.38;;;18.89;66.78
48216;BME280;34005;48.844;10.098;2023-09-19T00:20:48;96334.44;;;18.86;66.21
48216;BME280;34005;48.844;10.098;2023-09-19T00:23:17;96326.06;;;18.89;65.67
48216;BME280;34005;48.844;10.098;2023-09-19T00:25:45;96323.97;;;18.91;66.13
48216;BME280;34005;48.844;10.098;2023-09-19T00:28:13;96322.69;;;18.94;65.30
48216;BME280;34005;48.844;10.098;2023-09-19T00:30:42;96320.34;;;18.98;65.05
48216;BME280;34005;48.844;10.098;2023-09-19T00:33:10;96317.69;;;18.98;64.76
48216;BME280;34005;48.844;10.098;2023-09-19T00:35:47;96319.31;;;18.99;64.95
48216;BME280;34005;48.844;10.098;2023-09-19T00:38:15;96323.25;;;18.96;64.98
48216;BME280;34005;48.844;10.098;2023-09-19T00:40:44;96319.78;;;18.96;64.88
48216;BME280;34005;48.844;10.098;2023-09-19T00:43:12;96320.59;;;18.96;65.13
48216;BME280;34005;48.844;10.098;2023-09-19T00:45:43;96320.34;;;18.98;65.59
48216;BME280;34005;48.844;10.098;2023-09-19T00:48:11;96323.47;;;18.94;64.91
48216;BME280;34005;48.844;10.098;2023-09-19T00:50:41;96326.13;;;18.94;64.87
48216;BME280;34005;48.844;10.098;2023-09-19T00:53:14;96324.03;;;18.97;64.66
48216;BME280;34005;48.844;10.098;2023-09-19T00:55:41;96314.03;;;18.99;65.08
48216;BME280;34005;48.844;10.098;2023-09-19T00:58:10;96321.97;;;18.99;64.91
48216;BME280;34005;48.844;10.098;2023-09-19T01:00:38;96321.16;;;18.98;64.77
48216;BME280;34005;48.844;10.098;2023-09-19T01:03:11;96323.47;;;18.94;64.78
48216;BME280;34005;48.844;10.098;2023-09-19T01:05:40;96329.25;;;18.91;64.99
48216;BME280;34005;48.844;10.098;2023-09-19T01:08:08;96330.22;;;18.85;65.19
48216;BME280;34005;48.844;10.098;2023-09-19T01:10:44;96340.94;;;18.79;65.54
48216;BME280;34005;48.844;10.098;2023-09-19T01:13:21;96341.06;;;18.72;65.95
48216;BME280;34005;48.844;10.098;2023-09-19T01:15:55;96336.25;;;18.69;66.03
48216;BME280;34005;48.844;10.098;2023-09-19T01:18:31;96344.66;;;18.66;66.51
48216;BME280;34005;48.844;10.098;2023-09-19T01:21:08;96345.13;;;18.63;67.06
48216;BME280;34005;48.844;10.098;2023-09-19T01:23:50;96347.78;;;18.63;67.14
48216;BME280;34005;48.844;10.098;2023-09-19T01:26:42;96347.78;;;18.63;67.38
48216;BME280;34005;48.844;10.098;2023-09-19T01:29:25;96343.63;;;18.67;66.91
48216;BME280;34005;48.844;10.098;2023-09-19T01:32:03;96344.44;;;18.67;67.13
48216;BME280;34005;48.844;10.098;2023-09-19T01:34:53;96345.53;;;18.71;66.81
48216;BME280;34005;48.844;10.098;2023-09-19T01:37:24;96344.28;;;18.74;66.56
48216;BME280;34005;48.844;10.098;2023-09-19T01:39:55;96351.72;;;18.77;66.48
48216;BME280;34005;48.844;10.098;2023-09-19T01:42:28;96349.91;;;18.78;66.59
48216;BME280;34005;48.844;10.098;2023-09-19T01:45:03;96352.31;;;18.79;66.53
48216;BME280;34005;48.844;10.098;2023-09-19T01:47:38;96370.22;;;18.77;66.70
48216;BME280;34005;48.844;10.098;2023-09-19T01:50:17;96363.56;;;18.74;66.55
48216;BME280;34005;48.844;10.098;2023-09-19T01:52:54;96359.31;;;18.73;66.68
48216;BME280;34005;48.844;10.098;2023-09-19T01:55:26;96367.81;;;18.76;66.35
48216;BME280;34005;48.844;10.098;2023-09-19T01:58:01;96365.97;;;18.76;66.22
48216;BME280;34005;48.844;10.098;2023-09-19T02:00:32;96381.59;;;18.78;66.41
48216;BME280;34005;48.844;10.098;2023-09-19T02:03:03;96372.28;;;18.75;66.74
48216;BME280;34005;48.844;10.098;2023-09-19T02:05:31;96371.97;;;18.71;66.29
48216;BME280;34005;48.844;10.098;2023-09-19T02:07:59;96371.16;;;18.71;66.40
48216;BME280;34005;48.844;10.098;2023-09-19T02:10:27;96375.09;;;18.68;66.01
48216;BME280;34005;48.844;10.098;2023-09-19T02:12:54;96377.41;;;18.65;66.12
48216;BME280;34005;48.844;10.098;2023-09-19T02:15:23;96378.22;;;18.65;66.26
48216;BME280;34005;48.844;10.098;2023-09-19T02:17:50;96375.81;;;18.64;65.80
48216;BME280;34005;48.844;10.098;2023-09-19T02:20:21;96379.00;;;18.66;65.81
48216;BME280;34005;48.844;10.098;2023-09-19T02:22:48;96390.16;;;18.68;65.42
48216;BME280;34005;48.844;10.098;2023-09-19T02:25:16;96383.81;;;18.69;65.40
48216;BME280;34005;48.844;10.098;2023-09-19T02:27:45;96390.38;;;18.66;65.61
48216;BME280;34005;48.844;10.098;2023-09-19T02:30:13;96391.16;;;18.67;65.14
48216;BME280;34005;48.844;10.098;2023-09-19T02:32:42;96391.16;;;18.67;65.23
48216;BME280;34005;48.844;10.098;2023-09-19T02:35:10;96401.50;;;18.68;65.20
48216;BME280;34005;48.844;10.098;2023-09-19T02:37:39;96400.16;;;18.66;65.21
48216;BME280;34005;48.844;10.098;2023-09-19T02:40:08;96395.88;;;18.65;65.63
48216;BME280;34005;48.844;10.098;2023-09-19T02:42:45;96395.09;;;18.64;65.43
48216;BME280;34005;48.844;10.098;2023-09-19T02:45:16;96405.66;;;18.64;65.34
48216;BME280;34005;48.844;10.098;2023-09-19T02:47:45;96402.78;;;18.66;65.30
48216;BME280;34005;48.844;10.098;2023-09-19T02:50:13;96405.44;;;18.66;65.18
48216;BME280;34005;48.844;10.098;2023-09-19T02:52:44;96412.22;;;18.62;65.31
48216;BME280;34005;48.844;10.098;2023-09-19T02:55:14;96408.22;;;18.59;65.17
48216;BME280;34005;48.844;10.098;2023-09-19T02:57:45;96411.66;;;18.60;65.49
48216;BME280;34005;48.844;10.098;2023-09-19T03:00:14;96414.88;;;18.62;65.55
48216;BME280;34005;48.844;10.098;2023-09-19T03:02:42;96419.09;;;18.63;65.61
48216;BME280;34005;48.844;10.098;2023-09-19T03:05:11;96415.66;;;18.62;65.81
48216;BME280;34005;48.844;10.098;2023-09-19T03:07:38;96415.44;;;18.64;65.77
48216;BME280;34005;48.844;10.098;2023-09-19T03:10:08;96414.38;;;18.65;66.34
48216;BME280;34005;48.844;10.098;2023-09-19T03:12:36;96415.44;;;18.64;66.19
48216;BME280;34005;48.844;10.098;2023-09-19T03:15:05;96422.56;;;18.63;66.32
48216;BME280;34005;48.844;10.098;2023-09-19T03:17:35;96420.94;;;18.62;66.28
48216;BME280;34005;48.844;10.098;2023-09-19T03:20:03;96424.66;;;18.61;66.31
48216;BME280;34005;48.844;10.098;2023-09-19T03:22:34;96433.59;;;18.60;66.70
48216;BME280;34005;48.844;10.098;2023-09-19T03:25:01;96433.03;;;18.58;66.71
48216;BME280;34005;48.844;10.098;2023-09-19T03:27:31;96433.28;;;18.57;66.76
48216;BME280;34005;48.844;10.098;2023-09-19T03:29:59;96436.16;;;18.55;66.82
48216;BME280;34005;48.844;10.098;2023-09-19T03:32:27;96437.44;;;18.52;66.93
48216;BME280;34005;48.844;10.098;2023-09-19T03:34:54;96430.31;;;18.53;66.89
48216;BME280;34005;48.844;10.098;2023-09-19T03:37:24;96436.38;;;18.53;66.72
48216;BME280;34005;48.844;10.098;2023-09-19T03:39:52;96442.72;;;18.52;66.89
48216;BME280;34005;48.844;10.098;2023-09-19T03:42:20;96436.63;;;18.52;66.99
48216;BME280;34005;48.844;10.098;2023-09-19T03:44:53;96444.78;;;18.50;67.13
48216;BME280;34005;48.844;10.098;2023-09-19T03:47:21;96440.88;;;18.53;66.92
48216;BME280;34005;48.844;10.098;2023-09-19T03:49:49;96439.59;;;18.56;66.84
48216;BME280;34005;48.844;10.098;2023-09-19T03:52:17;96433.28;;;18.57;66.75
48216;BME280;34005;48.844;10.098;2023-09-19T03:54:44;96439.34;;;18.57;66.69
48216;BME280;34005;48.844;10.098;2023-09-19T03:57:12;96436.16;;;18.55;66.71
48216;BME280;34005;48.844;10.098;2023-09-19T03:59:42;96437.16;;;18.54;66.79
48216;BME280;34005;48.844;10.098;2023-09-19T04:02:11;96430.06;;;18.55;66.52
48216;BME280;34005;48.844;10.098;2023-09-19T04:04:48;96433.72;;;18.53;66.60
48216;BME280;34005;48.844;10.098;2023-09-19T04:07:17;96431.66;;;18.56;66.83
48216;BME280;34005;48.844;10.098;2023-09-19T04:09:45;96428.44;;;18.53;66.89
48216;BME280;34005;48.844;10.098;2023-09-19T04:12:13;96431.34;;;18.52;67.06
48216;BME280;34005;48.844;10.098;2023-09-19T04:14:43;96425.50;;;18.50;67.17
48216;BME280;34005;48.844;10.098;2023-09-19T04:17:12;96433.66;;;18.48;67.28
48216;BME280;34005;48.844;10.098;2023-09-19T04:19:40;96432.59;;;18.49;67.32
48216;BME280;34005;48.844;10.098;2023-09-19T04:22:08;96439.50;;;18.50;67.33
48216;BME280;34005;48.844;10.098;2023-09-19T04:24:37;96437.44;;;18.52;67.32
48216;BME280;34005;48.844;10.098;2023-09-19T04:27:05;96445.34;;;18.52;67.26
48216;BME280;34005;48.844;10.098;2023-09-19T04:29:33;96440.63;;;18.55;67.19
48216;BME280;34005;48.844;10.098;2023-09-19T04:32:01;96444.06;;;18.55;67.21
48216;BME280;34005;48.844;10.098;2023-09-19T04:34:32;96445.66;;;18.56;67.01
48216;BME280;34005;48.844;10.098;2023-09-19T04:37:01;96444.88;;;18.56;66.96
48216;BME280;34005;48.844;10.098;2023-09-19T04:39:30;96449.13;;;18.57;67.07
48216;BME280;34005;48.844;10.098;2023-09-19T04:41:57;96444.63;;;18.57;67.64
48216;BME280;34005;48.844;10.098;2023-09-19T04:44:26;96447.84;;;18.59;67.23
48216;BME280;34005;48.844;10.098;2023-09-19T04:46:54;96447.06;;;18.59;66.84
48216;BME280;34005;48.844;10.098;2023-09-19T04:49:22;96455.22;;;18.57;66.91
48216;BME280;34005;48.844;10.098;2023-09-19T04:51:51;96456.00;;;18.58;67.07
48216;BME280;34005;48.844;10.098;2023-09-19T04:54:20;96456.47;;;18.55;67.16
48216;BME280;34005;48.844;10.098;2023-09-19T04:56:48;96461.78;;;18.55;67.23
48216;BME280;34005;48.844;10.098;2023-09-19T04:59:16;96463.03;;;18.52;67.12
48216;BME280;34005;48.844;10.098;2023-09-19T05:01:43;96468.56;;;18.50;67.38
48216;BME280;34005;48.844;10.098;2023-09-19T05:04:11;96475.69;;;18.50;67.67
48216;BME280;34005;48.844;10.098;2023-09-19T05:06:39;96474.06;;;18.49;67.67
48216;BME280;34005;48.844;10.098;2023-09-19T05:09:08;96473.28;;;18.48;67.73
48216;BME280;34005;48.844;10.098;2023-09-19T05:11:36;96476.47;;;18.50;67.58
48216;BME280;34005;48.844;10.098;2023-09-19T05:14:05;96481.19;;;18.48;67.67
48216;BME280;34005;48.844;10.098;2023-09-19T05:16:32;96487.50;;;18.47;67.85
48216;BME280;34005;48.844;10.098;2023-09-19T05:19:00;96488.78;;;18.45;67.70
48216;BME280;34005;48.844;10.098;2023-09-19T05:21:28;96488.47;;;18.41;67.95
48216;BME280;34005;48.844;10.098;2023-09-19T05:23:56;96494.97;;;18.39;68.19
48216;BME280;34005;48.844;10.098;2023-09-19T05:26:25;96497.31;;;18.35;68.30
48216;BME280;34005;48.844;10.098;2023-09-19T05:28:53;96502.81;;;18.33;68.58
48216;BME280;34005;48.844;10.098;2023-09-19T05:31:21;96499.59;;;18.31;68.95
48216;BME280;34005;48.844;10.098;2023-09-19T05:33:49;96497.19;;;18.30;68.88
48216;BME280;34005;48.844;10.098;2023-09-19T05:36:17;96503.50;;;18.29;69.11
48216;BME280;34005;48.844;10.098;2023-09-19T05:38:45;96505.00;;;18.25;69.39
48216;BME280;34005;48.844;10.098;2023-09-19T05:41:16;96499.38;;;18.21;69.54
48216;BME280;34005;48.844;10.098;2023-09-19T05:43:45;96496.19;;;18.19;69.75
48216;BME280;34005;48.844;10.098;2023-09-19T05:46:13;96506.97;;;18.18;69.83
48216;BME280;34005;48.844;10.098;2023-09-19T05:48:47;96506.41;;;18.16;70.03
48216;BME280;34005;48.844;10.098;2023-09-19T05:51:21;96513.28;;;18.17;69.90
48216;BME280;34005;48.844;10.098;2023-09-19T05:53:56;96508.00;;;18.17;70.00
48216;BME280;34005;48.844;10.098;2023-09-19T05:56:26;96514.91;;;18.18;70.37
48216;BME280;34005;48.844;10.098;2023-09-19T05:59:00;96514.91;;;18.18;70.40
48216;BME280;34005;48.844;10.098;2023-09-19T06:01:32;96514.69;;;18.19;70.14
48216;BME280;34005;48.844;10.098;2023-09-19T06:04:03;96521.31;;;18.22;70.13
48216;BME280;34005;48.844;10.098;2023-09-19T06:06:35;96517.19;;;18.26;70.08
48216;BME280;34005;48.844;10.098;2023-09-19T06:09:06;96525.69;;;18.28;70.03
48216;BME280;34005;48.844;10.098;2023-09-19T06:11:37;96526.47;;;18.28;70.67
48216;BME280;34005;48.844;10.098;2023-09-19T06:14:10;96532.56;;;18.29;70.93
48216;BME280;34005;48.844;10.098;2023-09-19T06:16:43;96533.34;;;18.29;70.43
48216;BME280;34005;48.844;10.098;2023-09-19T06:19:15;96543.69;;;18.31;70.46
48216;BME280;34005;48.844;10.098;2023-09-19T06:21:52;96534.72;;;18.32;70.49
48216;BME280;34005;48.844;10.098;2023-09-19T06:24:28;96541.84;;;18.31;70.88
48216;BME280;34005;48.844;10.098;2023-09-19T06:27:01;96544.97;;;18.28;71.00
48216;BME280;34005;48.844;10.098;2023-09-19T06:33:25;96556.34;;;18.17;71.37
48216;BME280;34005;48.844;10.098;2023-09-19T06:36:19;96566.44;;;18.08;71.85
48216;BME280;34005;48.844;10.098;2023-09-19T06:39:13;96562.19;;;18.07;72.41
48216;BME280;34005;48.844;10.098;2023-09-19T06:42:35;96565.31;;;18.04;72.61
48216;BME280;34005;48.844;10.098;2023-09-19T06:45:40;96565.75;;;18.01;72.35
48216;BME280;34005;48.844;10.098;2023-09-19T06:48:55;96560.47;;;18.01;73.03
48216;BME280;34005;48.844;10.098;2023-09-19T06:55:05;96586.41;;;18.04;72.92
48216;BME280;34005;48.844;10.098;2023-09-19T07:01:02;96587.00;;;18.06;72.87
48216;BME280;34005;48.844;10.098;2023-09-19T07:04:38;96604.53;;;18.01;73.52
48216;BME280;34005;48.844;10.098;2023-09-19T07:07:51;96621.16;;;18.01;73.46
48216;BME280;34005;48.844;10.098;2023-09-19T07:10:58;96623.59;;;17.91;70.08
48216;BME280;34005;48.844;10.098;2023-09-19T07:13:57;96635.22;;;17.71;69.83
48216;BME280;34005;48.844;10.098;2023-09-19T07:51:01;96655.47;;;17.59;69.36
48216;BME280;34005;48.844;10.098;2023-09-19T07:53:29;96649.63;;;17.57;68.93
48216;BME280;34005;48.844;10.098;2023-09-19T08:03:53;96663.06;;;17.67;70.81
48216;BME280;34005;48.844;10.098;2023-09-19T08:06:22;96664.25;;;17.71;70.26
48216;BME280;34005;48.844;10.098;2023-09-19T08:08:50;96665.84;;;17.73;70.65
48216;BME280;34005;48.844;10.098;2023-09-19T08:11:20;96670.22;;;17.79;70.51
48216;BME280;34005;48.844;10.098;2023-09-19T08:13:50;96673.47;;;17.92;70.10
48216;BME280;34005;48.844;10.098;2023-09-19T08:16:19;96676.84;;;18.11;69.12
48216;BME280;34005;48.844;10.098;2023-09-19T08:18:49;96671.38;;;18.37;68.76
48216;BME280;34005;48.844;10.098;2023-09-19T08:21:19;96685.25;;;18.56;67.63
48216;BME280;34005;48.844;10.098;2023-09-19T08:23:48;96685.28;;;18.79;67.36
48216;BME280;34005;48.844;10.098;2023-09-19T08:26:15;96680.88;;;18.97;66.13
48216;BME280;34005;48.844;10.098;2023-09-19T08:28:44;96690.28;;;19.04;66.02
48216;BME280;34005;48.844;10.098;2023-09-19T08:31:11;96689.91;;;19.12;65.39
48216;BME280;34005;48.844;10.098;2023-09-19T08:33:39;96693.66;;;19.28;64.78
48216;BME280;34005;48.844;10.098;2023-09-19T08:36:08;96691.13;;;19.33;63.99
48216;BME280;34005;48.844;10.098;2023-09-19T08:38:36;96693.78;;;19.33;64.92
48216;BME280;34005;48.844;10.098;2023-09-19T08:41:07;96694.53;;;19.46;64.72
48216;BME280;34005;48.844;10.098;2023-09-19T08:43:36;96695.72;;;19.67;63.93
48216;BME280;34005;48.844;10.098;2023-09-19T08:46:09;96700.53;;;20.15;62.97
48216;BME280;34005;48.844;10.098;2023-09-19T08:48:39;96700.19;;;20.57;61.14
48216;BME280;34005;48.844;10.098;2023-09-19T08:51:18;96699.84;;;20.71;60.63
48216;BME280;34005;48.844;10.098;2023-09-19T08:53:51;96703.16;;;20.83;60.68
48216;BME280;34005;48.844;10.098;2023-09-19T08:56:24;96702.13;;;21.23;59.27
48216;BME280;34005;48.844;10.098;2023-09-19T08:58:55;96700.91;;;21.80;57.65
48216;BME280;34005;48.844;10.098;2023-09-19T09:01:26;96697.50;;;21.85;57.54
48216;BME280;34005;48.844;10.098;2023-09-19T09:03:55;96698.69;;;21.72;57.22
48216;BME280;34005;48.844;10.098;2023-09-19T09:06:24;96696.44;;;21.58;57.61
48216;BME280;34005;48.844;10.098;2023-09-19T09:08:52;96698.09;;;21.43;57.40
48216;BME280;34005;48.844;10.098;2023-09-19T09:11:21;96696.31;;;21.26;58.62
48216;BME280;34005;48.844;10.098;2023-09-19T09:13:52;96691.75;;;21.22;58.29
48216;BME280;34005;48.844;10.098;2023-09-19T09:16:20;96702.78;;;21.13;59.06
48216;BME280;34005;48.844;10.098;2023-09-19T09:18:52;96701.66;;;21.09;59.63
48216;BME280;34005;48.844;10.098;2023-09-19T09:21:21;96706.34;;;21.02;59.82
48216;BME280;34005;48.844;10.098;2023-09-19T09:23:49;96713.13;;;20.93;59.80
48216;BME280;34005;48.844;10.098;2023-09-19T09:26:42;96713.47;;;20.80;59.85
48216;BME280;34005;48.844;10.098;2023-09-19T09:29:11;96717.28;;;20.67;60.38
48216;BME280;34005;48.844;10.098;2023-09-19T09:31:45;96715.25;;;20.57;60.36
48216;BME280;34005;48.844;10.098;2023-09-19T09:34:15;96714.03;;;20.48;60.09
48216;BME280;34005;48.844;10.098;2023-09-19T09:36:48;96718.38;;;20.37;59.67
48216;BME280;34005;48.844;10.098;2023-09-19T09:39:29;96722.47;;;20.28;60.44
48216;BME280;34005;48.844;10.098;2023-09-19T09:41:58;96717.66;;;20.25;60.22
48216;BME280;34005;48.844;10.098;2023-09-19T09:44:27;96720.22;;;20.20;60.14
48216;BME280;34005;48.844;10.098;2023-09-19T09:46:58;96715.41;;;20.16;60.09
48216;BME280;34005;48.844;10.098;2023-09-19T09:49:47;96715.22;;;20.06;59.64
48216;BME280;34005;48.844;10.098;2023-09-19T09:52:21;96706.66;;;19.99;59.86
48216;BME280;34005;48.844;10.098;2023-09-19T09:55:01;96708.97;;;19.95;60.12
48216;BME280;34005;48.844;10.098;2023-09-19T09:57:32;96701.72;;;19.91;60.34
48216;BME280;34005;48.844;10.098;2023-09-19T10:00:03;96701.66;;;19.86;60.04
48216;BME280;34005;48.844;10.098;2023-09-19T10:02:46;96705.31;;;19.85;60.61
48216;BME280;34005;48.844;10.098;2023-09-19T10:05:15;96712.31;;;19.91;60.39
48216;BME280;34005;48.844;10.098;2023-09-19T10:07:49;96715.94;;;20.02;60.44
48216;BME280;34005;48.844;10.098;2023-09-19T10:10:29;96716.69;;;20.14;59.88
48216;BME280;34005;48.844;10.098;2023-09-19T10:13:05;96715.97;;;20.19;59.67
48216;BME280;34005;48.844;10.098;2023-09-19T10:15:36;96721.91;;;20.26;60.46
48216;BME280;34005;48.844;10.098;2023-09-19T10:18:05;96715.66;;;20.32;60.20
48216;BME280;34005;48.844;10.098;2023-09-19T10:20:36;96715.72;;;20.37;60.01
48216;BME280;34005;48.844;10.098;2023-09-19T10:23:06;96717.34;;;20.38;59.91
48216;BME280;34005;48.844;10.098;2023-09-19T10:25:40;96711.31;;;20.43;59.79
48216;BME280;34005;48.844;10.098;2023-09-19T10:28:09;96709.63;;;20.53;60.20
48216;BME280;34005;48.844;10.098;2023-09-19T10:30:46;96707.28;;;20.74;58.76
48216;BME280;34005;48.844;10.098;2023-09-19T10:33:16;96708.13;;;20.96;58.08
48216;BME280;34005;48.844;10.098;2023-09-19T10:35:45;96711.06;;;21.17;57.51
48216;BME280;34005;48.844;10.098;2023-09-19T10:38:18;96707.03;;;21.36;56.94
48216;BME280;34005;48.844;10.098;2023-09-19T10:40:49;96704.13;;;21.60;56.60
48216;BME280;34005;48.844;10.098;2023-09-19T10:43:20;96706.72;;;21.82;57.09
48216;BME280;34005;48.844;10.098;2023-09-19T10:45:50;96698.19;;;22.02;55.09
48216;BME280;34005;48.844;10.098;2023-09-19T10:48:20;96701.25;;;22.21;55.10
48216;BME280;34005;48.844;10.098;2023-09-19T10:50:58;96694.50;;;22.40;53.99
48216;BME280;34005;48.844;10.098;2023-09-19T10:53:41;96704.44;;;22.50;53.47
48216;BME280;34005;48.844;10.098;2023-09-19T10:56:10;96698.81;;;22.47;52.85
48216;BME280;34005;48.844;10.098;2023-09-19T10:58:44;96692.09;;;22.39;52.87
48216;BME280;34005;48.844;10.098;2023-09-19T11:01:13;96695.75;;;22.28;51.81
48216;BME280;34005;48.844;10.098;2023-09-19T11:03:41;96698.03;;;22.19;53.14
48216;BME280;34005;48.844;10.098;2023-09-19T11:06:16;96705.22;;;22.18;51.40
48216;BME280;34005;48.844;10.098;2023-09-19T11:08:53;96701.66;;;22.08;51.49
48216;BME280;34005;48.844;10.098;2023-09-19T11:11:45;96694.91;;;21.95;52.08
48216;BME280;34005;48.844;10.098;2023-09-19T11:14:30;96691.97;;;21.91;51.93
48216;BME280;34005;48.844;10.098;2023-09-19T11:20:28;96700.06;;;22.07;52.31
48216;BME280;34005;48.844;10.098;2023-09-19T11:23:18;96697.63;;;22.32;52.02
48216;BME280;34005;48.844;10.098;2023-09-19T11:25:49;96690.16;;;22.61;50.87
48216;BME280;34005;48.844;10.098;2023-09-19T11:28:34;96688.00;;;23.01;49.94
48216;BME280;34005;48.844;10.098;2023-09-19T11:34:38;96678.69;;;23.97;47.12
48216;BME280;34005;48.844;10.098;2023-09-19T11:40:10;96690.69;;;24.41;44.90
48216;BME280;34005;48.844;10.098;2023-09-19T11:42:43;96687.50;;;24.34;44.17
48216;BME280;34005;48.844;10.098;2023-09-19T11:46:01;96684.31;;;24.32;44.02
48216;BME280;34005;48.844;10.098;2023-09-19T11:48:29;96677.88;;;24.38;42.98
48216;BME280;34005;48.844;10.098;2023-09-19T11:50:59;96676.56;;;24.45;42.95
48216;BME280;34005;48.844;10.098;2023-09-19T11:53:33;96678.41;;;24.65;42.67
48216;BME280;34005;48.844;10.098;2023-09-19T11:56:06;96679.97;;;24.87;41.83
48216;BME280;34005;48.844;10.098;2023-09-19T11:58:37;96669.47;;;25.11;40.68
48216;BME280;34005;48.844;10.098;2023-09-19T12:01:06;96653.94;;;25.28;39.95
48216;BME280;34005;48.844;10.098;2023-09-19T12:03:42;96664.81;;;25.42;38.63
48216;BME280;34005;48.844;10.098;2023-09-19T12:06:14;96652.00;;;25.44;38.86
48216;BME280;34005;48.844;10.098;2023-09-19T12:08:43;96653.38;;;25.32;37.66
48216;BME280;34005;48.844;10.098;2023-09-19T12:11:15;96647.03;;;25.17;37.80
48216;BME280;34005;48.844;10.098;2023-09-19T12:13:45;96653.75;;;25.04;38.60
48216;BME280;34005;48.844;10.098;2023-09-19T12:16:14;96639.91;;;24.92;38.30
48216;BME280;34005;48.844;10.098;2023-09-19T12:18:44;96639.44;;;24.80;39.08
48216;BME280;34005;48.844;10.098;2023-09-19T12:21:27;96633.03;;;24.71;39.22
48216;BME280;34005;48.844;10.098;2023-09-19T12:24:07;96622.66;;;24.64;38.55
48216;BME280;34005;48.844;10.098;2023-09-19T12:26:40;96632.56;;;24.53;39.59
48216;BME280;34005;48.844;10.098;2023-09-19T12:29:13;96636.88;;;24.49;39.56
48216;BME280;34005;48.844;10.098;2023-09-19T12:31:50;96630.16;;;24.46;40.25
48216;BME280;34005;48.844;10.098;2023-09-19T12:34:22;96633.09;;;24.40;39.87
48216;BME280;34005;48.844;10.098;2023-09-19T12:37:07;96626.69;;;24.36;39.96
48216;BME280;34005;48.844;10.098;2023-09-19T12:39:39;96625.13;;;24.35;39.29
48216;BME280;34005;48.844;10.098;2023-09-19T12:42:11;96628.03;;;24.33;39.07
48216;BME280;34005;48.844;10.098;2023-09-19T12:44:42;96623.00;;;24.32;39.51
48216;BME280;34005;48.844;10.098;2023-09-19T12:47:15;96622.47;;;24.30;39.64
48216;BME280;34005;48.844;10.098;2023-09-19T12:50:05;96626.72;;;24.31;39.72
48216;BME280;34005;48.844;10.098;2023-09-19T12:52:35;96616.31;;;24.29;39.77
48216;BME280;34005;48.844;10.098;2023-09-19T12:55:04;96610.19;;;24.29;40.09
48216;BME280;34005;48.844;10.098;2023-09-19T12:57:34;96617.13;;;24.30;39.92
48216;BME280;34005;48.844;10.098;2023-09-19T13:00:03;96619.78;;;24.24;40.11
48216;BME280;34005;48.844;10.098;2023-09-19T13:02:32;96617.16;;;24.14;40.41
48216;BME280;34005;48.844;10.098;2023-09-19T13:05:00;96609.69;;;24.01;40.72
48216;BME280;34005;48.844;10.098;2023-09-19T13:07:40;96609.16;;;23.94;40.97
48216;BME280;34005;48.844;10.098;2023-09-19T13:10:10;96612.91;;;23.93;41.30
48216;BME280;34005;48.844;10.098;2023-09-19T13:12:39;96614.22;;;23.90;40.66
48216;BME280;34005;48.844;10.098;2023-09-19T13:15:08;96597.44;;;23.90;41.61
48216;BME280;34005;48.844;10.098;2023-09-19T13:17:43;96611.28;;;23.92;40.34
48216;BME280;34005;48.844;10.098;2023-09-19T13:20:21;96610.75;;;23.90;40.41
48216;BME280;34005;48.844;10.098;2023-09-19T13:22:51;96612.63;;;23.89;40.56
48216;BME280;34005;48.844;10.098;2023-09-19T13:25:21;96601.72;;;23.85;40.32
48216;BME280;34005;48.844;10.098;2023-09-19T13:27:52;96598.75;;;23.87;40.52
48216;BME280;34005;48.844;10.098;2023-09-19T13:30:22;96601.16;;;23.89;40.06
48216;BME280;34005;48.844;10.098;2023-09-19T13:32:51;96590.50;;;23.89;40.89
48216;BME280;34005;48.844;10.098;2023-09-19T13:35:20;96599.56;;;23.88;40.59
48216;BME280;34005;48.844;10.098;2023-09-19T13:37:48;96592.66;;;23.87;40.83
48216;BME280;34005;48.844;10.098;2023-09-19T13:40:18;96589.97;;;23.87;40.17
48216;BME280;34005;48.844;10.098;2023-09-19T13:42:46;96590.50;;;23.89;40.69
48216;BME280;34005;48.844;10.098;2023-09-19T13:45:15;96593.97;;;23.89;40.69
48216;BME280;34005;48.844;10.098;2023-09-19T13:47:44;96596.63;;;23.89;41.14
48216;BME280;34005;48.844;10.098;2023-09-19T13:50:12;96590.50;;;23.89;40.58
48216;BME280;34005;48.844;10.098;2023-09-19T13:52:41;96589.44;;;23.90;41.29
48216;BME280;34005;48.844;10.098;2023-09-19T13:55:09;96582.78;;;23.87;41.29
48216;BME280;34005;48.844;10.098;2023-09-19T13:57:36;96590.25;;;23.85;41.63
48216;BME280;34005;48.844;10.098;2023-09-19T14:00:05;96589.72;;;23.83;41.60
48216;BME280;34005;48.844;10.098;2023-09-19T14:02:38;96589.16;;;23.81;40.87
48216;BME280;34005;48.844;10.098;2023-09-19T14:05:07;96589.47;;;23.79;41.22
48216;BME280;34005;48.844;10.098;2023-09-19T14:07:35;96582.25;;;23.80;41.13
48216;BME280;34005;48.844;10.098;2023-09-19T14:10:03;96584.38;;;23.78;41.04
48216;BME280;34005;48.844;10.098;2023-09-19T14:12:34;96579.56;;;23.75;41.35
48216;BME280;34005;48.844;10.098;2023-09-19T14:15:02;96589.41;;;23.74;41.20
48216;BME280;34005;48.844;10.098;2023-09-19T14:17:30;96587.28;;;23.71;40.93
48216;BME280;34005;48.844;10.098;2023-09-19T14:19:59;96581.44;;;23.69;40.73